Time;durP1;ratioP1;P1;durP2;ratioP2;P2;SDS_P1;SDS_P2;PMS_P1;PMS_P2;Temp;Humidity;BMP_temperature;BMP_pressure;BME280_temperature;BME280_humidity;BME280_pressure;Samples;Min_cycle;Max_cycle;Signal;HPM_P1;HPM_P2
2022/03/18 00:03:53;;;;;;;0.20;0.00;;;15.60;99.90;;;;;;20778844;28;20231;-77
2022/03/18 00:13:58;;;;;;;0.20;0.00;;;15.50;99.90;;;;;;20767469;28;20264;-77
2022/03/18 00:24:04;;;;;;;0.20;0.20;;;15.40;99.90;;;;;;20765880;28;20218;-74
2022/03/18 00:34:08;;;;;;;0.20;0.10;;;15.40;99.90;;;;;;20771313;28;20207;-77
2022/03/18 00:44:14;;;;;;;0.20;0.10;;;15.40;99.90;;;;;;20781446;28;20242;-76
2022/03/18 00:54:18;;;;;;;0.20;0.10;;;15.50;99.90;;;;;;20813200;28;20239;-76
2022/03/18 01:04:25;;;;;;;0.20;0.10;;;15.40;99.90;;;;;;20751469;28;20219;-73
2022/03/18 01:14:29;;;;;;;0.20;0.10;;;15.40;99.90;;;;;;20761106;28;20194;-75
2022/03/18 01:24:35;;;;;;;0.20;0.10;;;15.40;99.90;;;;;;20765889;28;20238;-76
2022/03/18 01:34:39;;;;;;;0.20;0.10;;;15.40;99.90;;;;;;20774248;28;20215;-77
2022/03/18 01:44:47;;;;;;;0.20;0.10;;;15.30;99.90;;;;;;20721274;28;20231;-77
2022/03/18 01:54:51;;;;;;;0.20;0.07;;;15.20;99.90;;;;;;20720075;28;20235;-75
2022/03/18 02:04:58;;;;;;;0.20;0.00;;;15.20;99.90;;;;;;20718513;28;20241;-77
2022/03/18 02:15:01;;;;;;;0.20;0.10;;;15.10;99.90;;;;;;20720105;28;20199;-76
2022/03/18 02:25:09;;;;;;;0.20;0.00;;;15.00;99.90;;;;;;20701459;28;20238;-76
2022/03/18 02:35:13;;;;;;;0.20;0.10;;;15.00;99.90;;;;;;20751569;28;20191;-76
2022/03/18 02:45:18;;;;;;;0.20;0.03;;;14.90;99.90;;;;;;20799104;28;20230;-67
2022/03/18 02:55:22;;;;;;;0.20;0.00;;;14.80;99.90;;;;;;20781847;28;20222;-67
2022/03/18 03:15:49;;;;;;;0.20;0.10;;;14.70;99.90;;;;;;20813219;28;20198;-66
2022/03/18 03:25:55;;;;;;;0.20;0.00;;;14.60;99.90;;;;;;20794023;28;20245;-65
2022/03/18 03:35:59;;;;;;;0.20;0.10;;;14.60;99.90;;;;;;20794366;28;20226;-66
2022/03/18 03:46:04;;;;;;;0.20;0.10;;;14.70;99.90;;;;;;20810470;28;20242;-66
2022/03/18 03:56:08;;;;;;;0.20;0.10;;;14.60;99.90;;;;;;20809567;28;20518;-66
2022/03/18 04:06:15;;;;;;;0.20;0.00;;;14.60;99.90;;;;;;20807673;28;20645;-68
2022/03/18 04:16:18;;;;;;;0.20;0.10;;;14.60;99.90;;;;;;20808972;28;20391;-77
2022/03/18 04:26:24;;;;;;;0.20;0.10;;;14.60;99.90;;;;;;20806321;28;20249;-76
2022/03/18 04:36:27;;;;;;;0.20;0.10;;;14.60;99.90;;;;;;20807550;28;20199;-77
2022/03/18 04:46:33;;;;;;;0.20;0.00;;;14.60;99.90;;;;;;20806461;28;20242;-69
2022/03/18 05:06:59;;;;;;;0.20;0.10;;;14.60;99.90;;;;;;20803845;28;20222;-68
2022/03/18 05:17:03;;;;;;;0.20;0.10;;;14.70;99.90;;;;;;20805793;28;20366;-70
2022/03/18 05:27:09;;;;;;;0.20;0.10;;;14.80;99.90;;;;;;20784818;28;20235;-78
2022/03/18 05:37:12;;;;;;;0.20;0.10;;;14.60;99.90;;;;;;20802484;28;20217;-77
2022/03/18 05:47:18;;;;;;;0.20;0.10;;;14.70;99.90;;;;;;20798939;28;20246;-77
2022/03/18 05:57:22;;;;;;;0.37;0.30;;;14.60;99.90;;;;;;20796988;28;20226;-75
2022/03/18 06:07:27;;;;;;;0.20;0.10;;;14.60;99.90;;;;;;20797364;28;20227;-66
2022/03/18 06:17:31;;;;;;;1.53;0.53;;;14.60;99.90;;;;;;20778998;28;20203;-67
2022/03/18 06:27:36;;;;;;;0.20;0.10;;;14.60;99.90;;;;;;20796330;28;20485;-67
2022/03/18 06:37:40;;;;;;;0.20;0.10;;;14.70;99.90;;;;;;20781502;28;20203;-67
2022/03/18 06:47:45;;;;;;;0.60;0.60;;;14.80;99.90;;;;;;20812384;28;20241;-67
2022/03/18 06:57:48;;;;;;;0.20;0.10;;;15.00;99.90;;;;;;20806799;28;20245;-67
2022/03/18 07:07:54;;;;;;;0.20;0.10;;;15.20;99.90;;;;;;20803071;28;20207;-67
2022/03/18 07:17:59;;;;;;;0.20;0.10;;;15.30;99.90;;;;;;20804862;28;20282;-68
2022/03/18 07:28:07;;;;;;;0.20;0.00;;;15.40;99.90;;;;;;20808017;28;20219;-68
2022/03/18 07:38:11;;;;;;;0.20;0.10;;;15.50;99.90;;;;;;20816563;28;20207;-81
2022/03/18 07:48:16;;;;;;;0.20;0.00;;;15.70;99.90;;;;;;20810204;28;20489;-78
2022/03/18 07:58:19;;;;;;;0.20;0.10;;;15.70;99.90;;;;;;20718039;28;20239;-74
2022/03/18 08:08:25;;;;;;;0.20;0.10;;;16.10;99.90;;;;;;20792581;28;20235;-77
2022/03/18 08:18:29;;;;;;;0.20;0.07;;;16.20;99.90;;;;;;20801362;28;20223;-76
2022/03/18 08:28:34;;;;;;;0.20;0.10;;;16.40;99.90;;;;;;20772633;28;20472;-78
2022/03/18 08:38:43;;;;;;;1.73;1.13;;;16.80;99.90;;;;;;20766849;28;20306;-79
2022/03/18 08:48:49;;;;;;;0.20;0.10;;;16.90;99.90;;;;;;20774213;28;20195;-76
2022/03/18 08:58:52;;;;;;;0.20;0.00;;;17.20;99.90;;;;;;20774685;28;20227;-74
2022/03/18 09:09:02;;;;;;;0.20;0.10;;;16.70;99.90;;;;;;20718525;28;20207;-77
2022/03/18 09:19:07;;;;;;;0.20;0.10;;;16.70;99.90;;;;;;20744141;28;20446;-77
2022/03/18 09:29:12;;;;;;;0.20;0.00;;;16.80;99.90;;;;;;20739575;28;20231;-73
2022/03/18 09:39:16;;;;;;;0.20;0.10;;;16.50;99.90;;;;;;20796516;28;20372;-67
2022/03/18 09:49:22;;;;;;;0.20;0.10;;;16.30;99.90;;;;;;20778093;28;20217;-64
2022/03/18 09:59:27;;;;;;;0.20;0.10;;;16.50;99.90;;;;;;20741885;28;20231;-75
2022/03/18 10:09:32;;;;;;;0.20;0.10;;;16.60;99.90;;;;;;20743888;28;20183;-75
2022/03/18 10:19:46;;;;;;;0.20;0.10;;;16.50;99.90;;;;;;20741126;28;20238;-75
2022/03/18 10:29:53;;;;;;;0.20;0.10;;;16.70;99.90;;;;;;20745803;28;20218;-75
2022/03/18 10:40:01;;;;;;;0.20;0.10;;;16.60;99.90;;;;;;20723531;28;20230;-74
2022/03/18 10:50:19;;;;;;;0.20;0.10;;;16.70;99.90;;;;;;20739128;28;20226;-73
2022/03/18 11:00:25;;;;;;;0.20;0.10;;;17.00;99.90;;;;;;20738918;28;20256;-74
2022/03/18 11:20:52;;;;;;;0.20;0.00;;;18.00;99.90;;;;;;20748565;28;20231;-75
2022/03/18 11:31:04;;;;;;;0.30;0.30;;;18.30;99.90;;;;;;20759650;28;20218;-77
2022/03/18 11:41:08;;;;;;;0.20;0.00;;;18.90;99.90;;;;;;20790507;28;20357;-77
2022/03/18 11:51:29;;;;;;;0.20;0.00;;;19.70;99.90;;;;;;20791524;28;20238;-65
2022/03/18 12:01:42;;;;;;;0.20;0.07;;;18.60;99.90;;;;;;20793180;28;20230;-65
2022/03/18 12:11:48;;;;;;;0.20;0.10;;;18.90;99.90;;;;;;20785458;28;20196;-66
2022/03/18 12:21:52;;;;;;;0.20;0.10;;;18.20;99.90;;;;;;20743272;28;20327;-66
2022/03/18 12:32:05;;;;;;;0.37;0.30;;;17.20;99.90;;;;;;20745152;28;20223;-75
2022/03/18 12:42:11;;;;;;;0.20;0.10;;;16.90;99.90;;;;;;20784404;28;20253;-73
2022/03/18 12:52:16;;;;;;;0.20;0.10;;;16.90;99.90;;;;;;20771463;28;20231;-74
2022/03/18 13:02:21;;;;;;;0.20;0.10;;;17.20;99.90;;;;;;20774850;28;20237;-75
2022/03/18 13:12:29;;;;;;;0.20;0.10;;;17.10;99.90;;;;;;20771393;28;20218;-71
2022/03/18 13:22:34;;;;;;;0.20;0.10;;;16.40;99.90;;;;;;20787853;28;20226;-70
2022/03/18 13:32:53;;;;;;;0.20;0.10;;;16.70;99.90;;;;;;20741251;28;20448;-68
2022/03/18 13:43:03;;;;;;;0.33;0.33;;;16.50;99.90;;;;;;20737622;28;20223;-69
2022/03/18 13:53:22;;;;;;;0.20;0.10;;;16.90;99.90;;;;;;20742534;28;20289;-67
2022/03/18 14:03:32;;;;;;;0.37;0.37;;;16.50;99.90;;;;;;20743271;28;20456;-64
2022/03/18 14:13:39;;;;;;;0.20;0.10;;;16.50;99.90;;;;;;20742114;28;20214;-65
2022/03/18 14:23:46;;;;;;;0.20;0.20;;;16.30;99.90;;;;;;20739931;28;20227;-61
2022/03/18 14:33:52;;;;;;;0.20;0.10;;;16.40;99.90;;;;;;20742115;28;20238;-65
2022/03/18 14:43:56;;;;;;;0.20;0.20;;;16.50;99.90;;;;;;20739365;28;20373;-63
2022/03/18 15:06:22;;;;;;;0.20;0.10;;;16.20;99.90;;;;;;20826609;28;21055;-75
2022/03/18 15:16:26;;;;;;;0.60;0.33;;;15.90;99.90;;;;;;20915581;28;20208;-65
2022/03/18 15:26:37;;;;;;;0.57;0.57;;;16.40;99.90;;;;;;20969532;28;20259;-66
2022/03/18 15:36:41;;;;;;;0.20;0.10;;;16.00;99.90;;;;;;20966242;28;20216;-66
2022/03/18 15:46:47;;;;;;;0.20;0.10;;;15.50;99.90;;;;;;20964405;28;20235;-65
2022/03/18 15:56:51;;;;;;;0.20;0.20;;;16.00;99.90;;;;;;20965605;28;20217;-65
2022/03/18 16:06:58;;;;;;;0.20;0.10;;;16.00;99.90;;;;;;20961498;28;20233;-75
2022/03/18 16:17:01;;;;;;;0.37;0.30;;;16.30;99.90;;;;;;20961536;28;20197;-75
2022/03/18 16:27:09;;;;;;;0.90;0.87;;;16.40;99.90;;;;;;20877767;28;20230;-72
2022/03/18 16:37:13;;;;;;;0.20;0.03;;;16.10;99.90;;;;;;20881973;28;20202;-76
2022/03/18 16:57:39;;;;;;;0.40;0.40;;;15.90;99.90;;;;;;20965228;28;20194;-68
2022/03/18 17:07:45;;;;;;;0.20;0.07;;;15.60;99.90;;;;;;20934424;28;20277;-68
2022/03/18 17:17:48;;;;;;;0.40;0.40;;;15.50;99.90;;;;;;20958518;28;20207;-72
2022/03/18 17:27:54;;;;;;;2.33;1.13;;;15.30;99.90;;;;;;20957838;28;20229;-78
2022/03/18 17:37:57;;;;;;;0.20;0.10;;;15.10;99.90;;;;;;20958041;28;20201;-74
2022/03/18 17:48:03;;;;;;;0.20;0.10;;;15.00;99.90;;;;;;20902669;28;20718;-71
2022/03/18 17:58:07;;;;;;;0.20;0.00;;;14.90;99.90;;;;;;20871526;28;20208;-74
2022/03/18 18:08:13;;;;;;;0.20;0.00;;;14.70;99.90;;;;;;20846855;28;20297;-75
2022/03/18 18:18:21;;;;;;;0.20;0.10;;;14.50;99.90;;;;;;20869380;28;20194;-75
2022/03/18 18:28:26;;;;;;;0.20;0.10;;;14.60;99.90;;;;;;20873952;28;20240;-74
2022/03/18 18:38:31;;;;;;;0.20;0.10;;;14.50;99.90;;;;;;20891909;28;20205;-76
2022/03/18 18:48:37;;;;;;;0.20;0.10;;;14.40;99.90;;;;;;20898772;28;20228;-77
2022/03/18 18:58:40;;;;;;;0.20;0.00;;;14.40;99.90;;;;;;20898964;28;20190;-68
2022/03/18 19:08:45;;;;;;;0.20;0.00;;;14.40;99.90;;;;;;20817612;28;20510;-68
2022/03/18 19:18:49;;;;;;;0.20;0.10;;;14.30;99.90;;;;;;20866299;28;20197;-67
2022/03/18 19:28:55;;;;;;;0.20;0.10;;;14.40;99.90;;;;;;20899964;28;20230;-68
2022/03/18 19:38:59;;;;;;;0.20;0.10;;;14.30;99.90;;;;;;20898717;28;20209;-68
2022/03/18 19:49:04;;;;;;;6.50;4.63;;;14.20;99.90;;;;;;20828706;28;20287;-69
2022/03/18 20:09:31;;;;;;;0.20;0.10;;;14.30;99.90;;;;;;20881785;28;20281;-78
2022/03/18 20:19:34;;;;;;;0.20;0.10;;;14.30;99.90;;;;;;20938970;28;20212;-77
2022/03/18 20:29:42;;;;;;;0.20;0.10;;;14.30;99.90;;;;;;20960592;28;20256;-77
2022/03/18 20:39:47;;;;;;;0.20;0.10;;;14.20;99.90;;;;;;20941009;28;20263;-78
2022/03/18 20:49:52;;;;;;;0.40;0.40;;;14.30;99.90;;;;;;20898357;28;20234;-78
2022/03/18 20:59:56;;;;;;;0.20;0.10;;;14.30;99.90;;;;;;20866445;28;20225;-79
2022/03/18 21:10:01;;;;;;;0.20;0.10;;;14.30;99.90;;;;;;20950939;28;20229;-79
2022/03/18 21:20:06;;;;;;;0.33;0.30;;;14.20;99.90;;;;;;20968596;28;20194;-66
2022/03/18 21:40:36;;;;;;;0.20;0.10;;;14.00;99.90;;;;;;20946085;28;20202;-75
2022/03/18 21:50:41;;;;;;;0.20;0.10;;;14.00;99.90;;;;;;20881608;28;20226;-77
2022/03/18 22:00:45;;;;;;;0.30;0.30;;;14.10;99.90;;;;;;20858178;28;20233;-63
2022/03/18 22:10:51;;;;;;;0.20;0.10;;;14.10;99.90;;;;;;20874540;28;20198;-66
2022/03/18 22:20:55;;;;;;;0.20;0.10;;;13.90;99.90;;;;;;20943234;28;20225;-66
2022/03/18 22:31:01;;;;;;;0.20;0.00;;;14.00;99.90;;;;;;20941316;28;20209;-76
2022/03/18 22:41:05;;;;;;;0.20;0.10;;;14.00;99.90;;;;;;20955801;28;20238;-74
2022/03/18 22:51:10;;;;;;;0.20;0.20;;;14.00;99.90;;;;;;20880770;28;20202;-68
2022/03/18 23:01:14;;;;;;;0.20;0.10;;;13.80;99.90;;;;;;20876173;28;20225;-68
2022/03/18 23:21:41;;;;;;;0.23;0.17;;;13.70;99.90;;;;;;20935774;28;20284;-68
2022/03/18 23:31:48;;;;;;;0.20;0.10;;;13.70;99.90;;;;;;20976954;28;20279;-70
2022/03/18 23:41:52;;;;;;;0.20;0.10;;;13.80;99.90;;;;;;20979280;28;20240;-70
2022/03/18 23:51:57;;;;;;;0.20;0.10;;;13.80;99.90;;;;;;20963148;28;20197;-77
